RPLC/CRK METAR and TAF weather

Enter ICAO airport designator
Station Type Date Time Source
RPLC METAR 2020/09/19 18:00 UTC NOAA

RPLC 191800Z 34002KT 8000 FEW020 BKN300 25/23 Q1011 NOSIG RMK A2985


Station Type Date Time Source
RPLC Decoded METAR 2020/09/19 18:00 UTC NOAA

Clarkfield Pampanga International Airport, Philippines (RPLC) 15-11N 120-33E
Sep 19, 2020 - 02:00 PM EDT / 2020.09.19 1800 UTC
Wind: from the NNW (340 degrees) at 2 MPH (2 KT):0
Visibility: 4 mile(s):0
Sky conditions: mostly cloudy
Temperature: 77 F (25 C)
Dew Point: 73 F (23 C)
Relative Humidity: 88%
Pressure (altimeter): 29.85 in. Hg (1011 hPa)
ob: RPLC 191800Z 34002KT 8000 FEW020 BKN300 25/23 Q1011 NOSIG RMK A2985
cycle: 18

Station Type Date Time Source
RPLC TAF 2020/09/19 18:59 UTC NOAA

TAF RPLC 191700Z 1918/2024 15006KT 9000 FEW020 BKN300 TX33/2006Z TN24/1922Z
TEMPO 1918/1924 34006KT SCT020 BKN300

Example: see airport list